sensor_id;sensor_type;location;lat;lon;timestamp;P1;durP1;ratioP1;P2;durP2;ratioP2
66739;SDS011;53653;52.188;8.602;2022-07-17T00:00:50;5.97;;;1.73;;
66739;SDS011;53653;52.188;8.602;2022-07-17T00:03:16;7.30;;;1.80;;
66739;SDS011;53653;52.188;8.602;2022-07-17T00:05:42;8.98;;;2.22;;
66739;SDS011;53653;52.188;8.602;2022-07-17T00:08:09;6.97;;;2.00;;
66739;SDS011;53653;52.188;8.602;2022-07-17T00:10:36;8.18;;;1.98;;
66739;SDS011;53653;52.188;8.602;2022-07-17T00:13:04;7.30;;;2.08;;
66739;SDS011;53653;52.188;8.602;2022-07-17T00:15:29;10.10;;;2.03;;
66739;SDS011;53653;52.188;8.602;2022-07-17T00:17:56;6.47;;;2.20;;
66739;SDS011;53653;52.188;8.602;2022-07-17T00:20:21;8.00;;;2.00;;
66739;SDS011;53653;52.188;8.602;2022-07-17T00:22:50;7.43;;;2.03;;
66739;SDS011;53653;52.188;8.602;2022-07-17T00:25:16;7.45;;;2.40;;
66739;SDS011;53653;52.188;8.602;2022-07-17T00:27:41;7.03;;;2.30;;
66739;SDS011;53653;52.188;8.602;2022-07-17T00:30:07;9.73;;;2.45;;
66739;SDS011;53653;52.188;8.602;2022-07-17T00:32:33;6.85;;;2.42;;
66739;SDS011;53653;52.188;8.602;2022-07-17T00:34:58;7.27;;;2.17;;
66739;SDS011;53653;52.188;8.602;2022-07-17T00:37:24;6.10;;;2.43;;
66739;SDS011;53653;52.188;8.602;2022-07-17T00:39:49;7.70;;;2.40;;
66739;SDS011;53653;52.188;8.602;2022-07-17T00:42:15;8.20;;;2.43;;
66739;SDS011;53653;52.188;8.602;2022-07-17T00:44:42;10.95;;;2.30;;
66739;SDS011;53653;52.188;8.602;2022-07-17T00:47:16;6.73;;;2.00;;
66739;SDS011;53653;52.188;8.602;2022-07-17T00:49:43;6.68;;;1.80;;
66739;SDS011;53653;52.188;8.602;2022-07-17T00:52:09;5.90;;;2.20;;
66739;SDS011;53653;52.188;8.602;2022-07-17T00:54:36;9.27;;;2.27;;
66739;SDS011;53653;52.188;8.602;2022-07-17T00:57:03;7.80;;;2.33;;
66739;SDS011;53653;52.188;8.602;2022-07-17T00:59:32;5.00;;;1.52;;
66739;SDS011;53653;52.188;8.602;2022-07-17T01:02:04;6.95;;;2.15;;
66739;SDS011;53653;52.188;8.602;2022-07-17T01:04:31;8.65;;;2.30;;
66739;SDS011;53653;52.188;8.602;2022-07-17T01:06:58;6.93;;;1.83;;
66739;SDS011;53653;52.188;8.602;2022-07-17T01:09:24;6.18;;;1.83;;
66739;SDS011;53653;52.188;8.602;2022-07-17T01:11:50;7.13;;;2.05;;
66739;SDS011;53653;52.188;8.602;2022-07-17T01:14:16;8.57;;;2.13;;
66739;SDS011;53653;52.188;8.602;2022-07-17T01:16:42;5.43;;;1.93;;
66739;SDS011;53653;52.188;8.602;2022-07-17T01:19:08;7.30;;;1.98;;
66739;SDS011;53653;52.188;8.602;2022-07-17T01:21:41;7.88;;;2.13;;
66739;SDS011;53653;52.188;8.602;2022-07-17T01:24:12;7.63;;;2.20;;
66739;SDS011;53653;52.188;8.602;2022-07-17T01:26:41;7.30;;;2.22;;
66739;SDS011;53653;52.188;8.602;2022-07-17T01:29:08;7.70;;;1.90;;
66739;SDS011;53653;52.188;8.602;2022-07-17T01:31:35;11.00;;;2.40;;
66739;SDS011;53653;52.188;8.602;2022-07-17T01:34:01;8.23;;;2.30;;
66739;SDS011;53653;52.188;8.602;2022-07-17T01:36:28;7.15;;;2.08;;
66739;SDS011;53653;52.188;8.602;2022-07-17T01:38:53;8.63;;;2.37;;
66739;SDS011;53653;52.188;8.602;2022-07-17T01:41:20;9.75;;;2.08;;
66739;SDS011;53653;52.188;8.602;2022-07-17T01:43:45;6.20;;;1.80;;
66739;SDS011;53653;52.188;8.602;2022-07-17T01:46:10;8.20;;;1.98;;
66739;SDS011;53653;52.188;8.602;2022-07-17T01:48:36;6.43;;;1.93;;
66739;SDS011;53653;52.188;8.602;2022-07-17T01:51:02;6.93;;;1.90;;
66739;SDS011;53653;52.188;8.602;2022-07-17T01:53:28;9.13;;;2.20;;
66739;SDS011;53653;52.188;8.602;2022-07-17T01:55:53;6.23;;;2.20;;
66739;SDS011;53653;52.188;8.602;2022-07-17T01:58:19;8.48;;;2.00;;
66739;SDS011;53653;52.188;8.602;2022-07-17T02:00:44;6.30;;;2.17;;
66739;SDS011;53653;52.188;8.602;2022-07-17T02:03:10;7.23;;;2.50;;
66739;SDS011;53653;52.188;8.602;2022-07-17T02:05:35;10.27;;;2.30;;
66739;SDS011;53653;52.188;8.602;2022-07-17T02:08:01;6.50;;;2.20;;
66739;SDS011;53653;52.188;8.602;2022-07-17T02:10:27;6.55;;;2.40;;
66739;SDS011;53653;52.188;8.602;2022-07-17T02:12:53;8.15;;;2.25;;
66739;SDS011;53653;52.188;8.602;2022-07-17T02:15:18;6.97;;;2.33;;
66739;SDS011;53653;52.188;8.602;2022-07-17T02:17:43;10.93;;;2.77;;
66739;SDS011;53653;52.188;8.602;2022-07-17T02:20:10;7.17;;;2.70;;
66739;SDS011;53653;52.188;8.602;2022-07-17T02:22:36;7.72;;;2.42;;
66739;SDS011;53653;52.188;8.602;2022-07-17T02:25:02;9.07;;;2.30;;
66739;SDS011;53653;52.188;8.602;2022-07-17T02:27:30;6.50;;;2.15;;
66739;SDS011;53653;52.188;8.602;2022-07-17T02:29:56;7.53;;;2.47;;
66739;SDS011;53653;52.188;8.602;2022-07-17T02:32:22;9.70;;;2.97;;
66739;SDS011;53653;52.188;8.602;2022-07-17T02:34:48;6.93;;;2.13;;
66739;SDS011;53653;52.188;8.602;2022-07-17T02:37:13;12.13;;;2.50;;
66739;SDS011;53653;52.188;8.602;2022-07-17T02:39:38;8.57;;;2.70;;
66739;SDS011;53653;52.188;8.602;2022-07-17T02:42:17;7.60;;;2.40;;
66739;SDS011;53653;52.188;8.602;2022-07-17T02:44:45;9.48;;;2.50;;
66739;SDS011;53653;52.188;8.602;2022-07-17T02:47:10;6.47;;;2.50;;
66739;SDS011;53653;52.188;8.602;2022-07-17T02:49:36;7.07;;;2.57;;
66739;SDS011;53653;52.188;8.602;2022-07-17T02:52:01;8.97;;;2.63;;
66739;SDS011;53653;52.188;8.602;2022-07-17T02:54:27;9.45;;;2.88;;
66739;SDS011;53653;52.188;8.602;2022-07-17T02:56:52;7.10;;;2.60;;
66739;SDS011;53653;52.188;8.602;2022-07-17T02:59:17;7.93;;;2.20;;
66739;SDS011;53653;52.188;8.602;2022-07-17T03:01:43;7.87;;;2.77;;
66739;SDS011;53653;52.188;8.602;2022-07-17T03:04:08;9.63;;;2.42;;
66739;SDS011;53653;52.188;8.602;2022-07-17T03:06:34;10.00;;;2.80;;
66739;SDS011;53653;52.188;8.602;2022-07-17T03:08:59;10.67;;;2.53;;
66739;SDS011;53653;52.188;8.602;2022-07-17T03:11:24;8.13;;;2.10;;
66739;SDS011;53653;52.188;8.602;2022-07-17T03:13:50;8.63;;;2.40;;
66739;SDS011;53653;52.188;8.602;2022-07-17T03:16:15;10.23;;;2.60;;
66739;SDS011;53653;52.188;8.602;2022-07-17T03:18:40;7.57;;;2.60;;
66739;SDS011;53653;52.188;8.602;2022-07-17T03:21:06;9.53;;;3.13;;
66739;SDS011;53653;52.188;8.602;2022-07-17T03:23:31;6.73;;;2.03;;
66739;SDS011;53653;52.188;8.602;2022-07-17T03:25:57;8.77;;;2.60;;
66739;SDS011;53653;52.188;8.602;2022-07-17T03:28:22;11.48;;;2.75;;
66739;SDS011;53653;52.188;8.602;2022-07-17T03:30:47;7.20;;;2.43;;
66739;SDS011;53653;52.188;8.602;2022-07-17T03:33:13;10.43;;;2.70;;
66739;SDS011;53653;52.188;8.602;2022-07-17T03:35:38;10.00;;;2.83;;
66739;SDS011;53653;52.188;8.602;2022-07-17T03:38:04;8.77;;;2.60;;
66739;SDS011;53653;52.188;8.602;2022-07-17T03:40:29;9.95;;;2.83;;
66739;SDS011;53653;52.188;8.602;2022-07-17T03:42:55;10.60;;;2.77;;
66739;SDS011;53653;52.188;8.602;2022-07-17T03:45:20;9.27;;;2.30;;
66739;SDS011;53653;52.188;8.602;2022-07-17T03:47:45;8.60;;;2.60;;
66739;SDS011;53653;52.188;8.602;2022-07-17T03:50:11;9.47;;;2.73;;
66739;SDS011;53653;52.188;8.602;2022-07-17T03:52:36;11.03;;;2.50;;
66739;SDS011;53653;52.188;8.602;2022-07-17T03:55:02;8.50;;;3.03;;
66739;SDS011;53653;52.188;8.602;2022-07-17T03:57:27;9.93;;;2.80;;
66739;SDS011;53653;52.188;8.602;2022-07-17T03:59:53;7.83;;;2.73;;
66739;SDS011;53653;52.188;8.602;2022-07-17T04:02:18;8.57;;;2.73;;
66739;SDS011;53653;52.188;8.602;2022-07-17T04:04:44;8.85;;;2.80;;
66739;SDS011;53653;52.188;8.602;2022-07-17T04:07:09;9.53;;;2.87;;
66739;SDS011;53653;52.188;8.602;2022-07-17T04:09:51;6.25;;;2.70;;
66739;SDS011;53653;52.188;8.602;2022-07-17T04:12:20;9.50;;;3.15;;
66739;SDS011;53653;52.188;8.602;2022-07-17T04:14:46;8.30;;;2.43;;
66739;SDS011;53653;52.188;8.602;2022-07-17T04:17:11;10.40;;;3.00;;
66739;SDS011;53653;52.188;8.602;2022-07-17T04:19:37;7.10;;;2.53;;
66739;SDS011;53653;52.188;8.602;2022-07-17T04:22:02;11.02;;;2.85;;
66739;SDS011;53653;52.188;8.602;2022-07-17T04:24:28;9.97;;;2.70;;
66739;SDS011;53653;52.188;8.602;2022-07-17T04:26:53;13.47;;;3.63;;
66739;SDS011;53653;52.188;8.602;2022-07-17T04:29:18;8.60;;;2.63;;
66739;SDS011;53653;52.188;8.602;2022-07-17T04:31:44;7.63;;;2.40;;
66739;SDS011;53653;52.188;8.602;2022-07-17T04:34:09;11.38;;;2.65;;
66739;SDS011;53653;52.188;8.602;2022-07-17T04:36:34;7.17;;;2.27;;
66739;SDS011;53653;52.188;8.602;2022-07-17T04:39:00;8.77;;;2.37;;
66739;SDS011;53653;52.188;8.602;2022-07-17T04:41:25;9.63;;;2.63;;
66739;SDS011;53653;52.188;8.602;2022-07-17T04:43:51;7.88;;;2.65;;
66739;SDS011;53653;52.188;8.602;2022-07-17T04:46:17;7.33;;;2.50;;
66739;SDS011;53653;52.188;8.602;2022-07-17T04:48:42;8.90;;;2.50;;
66739;SDS011;53653;52.188;8.602;2022-07-17T04:51:08;8.50;;;2.83;;
66739;SDS011;53653;52.188;8.602;2022-07-17T04:53:33;10.67;;;3.00;;
66739;SDS011;53653;52.188;8.602;2022-07-17T04:56:00;9.80;;;2.50;;
66739;SDS011;53653;52.188;8.602;2022-07-17T04:58:26;13.40;;;2.80;;
66739;SDS011;53653;52.188;8.602;2022-07-17T05:00:51;7.40;;;2.60;;
66739;SDS011;53653;52.188;8.602;2022-07-17T05:03:17;6.53;;;2.77;;
66739;SDS011;53653;52.188;8.602;2022-07-17T05:05:42;8.00;;;2.93;;
66739;SDS011;53653;52.188;8.602;2022-07-17T05:08:08;7.63;;;3.10;;
66739;SDS011;53653;52.188;8.602;2022-07-17T05:10:33;9.17;;;2.80;;
66739;SDS011;53653;52.188;8.602;2022-07-17T05:12:58;8.53;;;3.00;;
66739;SDS011;53653;52.188;8.602;2022-07-17T05:15:24;9.33;;;2.83;;
66739;SDS011;53653;52.188;8.602;2022-07-17T05:17:49;8.35;;;3.10;;
66739;SDS011;53653;52.188;8.602;2022-07-17T05:20:15;10.43;;;2.90;;
66739;SDS011;53653;52.188;8.602;2022-07-17T05:22:40;9.67;;;3.20;;
66739;SDS011;53653;52.188;8.602;2022-07-17T05:25:06;8.13;;;2.80;;
66739;SDS011;53653;52.188;8.602;2022-07-17T05:27:31;8.05;;;2.90;;
66739;SDS011;53653;52.188;8.602;2022-07-17T05:29:57;7.43;;;3.03;;
66739;SDS011;53653;52.188;8.602;2022-07-17T05:32:22;12.43;;;3.15;;
66739;SDS011;53653;52.188;8.602;2022-07-17T05:34:48;11.43;;;2.90;;
66739;SDS011;53653;52.188;8.602;2022-07-17T05:37:13;8.97;;;2.90;;
66739;SDS011;53653;52.188;8.602;2022-07-17T05:39:39;9.93;;;2.57;;
66739;SDS011;53653;52.188;8.602;2022-07-17T05:42:05;9.43;;;2.95;;
66739;SDS011;53653;52.188;8.602;2022-07-17T05:44:30;9.35;;;3.00;;
66739;SDS011;53653;52.188;8.602;2022-07-17T05:46:56;9.77;;;2.77;;
66739;SDS011;53653;52.188;8.602;2022-07-17T05:49:21;8.00;;;2.40;;
66739;SDS011;53653;52.188;8.602;2022-07-17T05:51:46;7.70;;;2.40;;
66739;SDS011;53653;52.188;8.602;2022-07-17T05:54:12;11.27;;;2.57;;
66739;SDS011;53653;52.188;8.602;2022-07-17T05:56:37;9.00;;;2.57;;
66739;SDS011;53653;52.188;8.602;2022-07-17T05:59:03;10.43;;;2.80;;
66739;SDS011;53653;52.188;8.602;2022-07-17T06:01:28;7.27;;;2.80;;
66739;SDS011;53653;52.188;8.602;2022-07-17T06:03:54;9.00;;;2.60;;
66739;SDS011;53653;52.188;8.602;2022-07-17T06:06:19;10.63;;;2.60;;
66739;SDS011;53653;52.188;8.602;2022-07-17T06:08:46;8.55;;;2.90;;
66739;SDS011;53653;52.188;8.602;2022-07-17T06:11:11;9.33;;;2.80;;
66739;SDS011;53653;52.188;8.602;2022-07-17T06:13:37;9.35;;;2.58;;
66739;SDS011;53653;52.188;8.602;2022-07-17T06:16:03;13.43;;;3.40;;
66739;SDS011;53653;52.188;8.602;2022-07-17T06:18:28;9.20;;;3.03;;
66739;SDS011;53653;52.188;8.602;2022-07-17T06:20:54;7.50;;;2.93;;
66739;SDS011;53653;52.188;8.602;2022-07-17T06:23:19;9.70;;;2.70;;
66739;SDS011;53653;52.188;8.602;2022-07-17T06:25:45;9.20;;;2.60;;
66739;SDS011;53653;52.188;8.602;2022-07-17T06:28:11;11.15;;;2.90;;
66739;SDS011;53653;52.188;8.602;2022-07-17T06:30:36;7.50;;;2.50;;
66739;SDS011;53653;52.188;8.602;2022-07-17T06:33:02;6.10;;;2.30;;
66739;SDS011;53653;52.188;8.602;2022-07-17T06:35:27;8.98;;;2.40;;
66739;SDS011;53653;52.188;8.602;2022-07-17T06:37:55;9.93;;;2.90;;
66739;SDS011;53653;52.188;8.602;2022-07-17T06:40:21;6.70;;;2.20;;
66739;SDS011;53653;52.188;8.602;2022-07-17T06:42:47;8.15;;;2.30;;
66739;SDS011;53653;52.188;8.602;2022-07-17T06:45:13;6.43;;;2.40;;
66739;SDS011;53653;52.188;8.602;2022-07-17T06:47:38;8.80;;;2.30;;
66739;SDS011;53653;52.188;8.602;2022-07-17T06:50:04;6.50;;;2.00;;
66739;SDS011;53653;52.188;8.602;2022-07-17T06:52:30;9.88;;;2.90;;
66739;SDS011;53653;52.188;8.602;2022-07-17T06:54:55;9.27;;;2.33;;
66739;SDS011;53653;52.188;8.602;2022-07-17T06:57:21;6.33;;;2.20;;
66739;SDS011;53653;52.188;8.602;2022-07-17T06:59:46;9.30;;;2.15;;
66739;SDS011;53653;52.188;8.602;2022-07-17T07:02:12;7.67;;;2.23;;
66739;SDS011;53653;52.188;8.602;2022-07-17T07:04:37;9.97;;;2.20;;
66739;SDS011;53653;52.188;8.602;2022-07-17T07:07:02;8.00;;;1.90;;
66739;SDS011;53653;52.188;8.602;2022-07-17T07:09:28;9.55;;;2.13;;
66739;SDS011;53653;52.188;8.602;2022-07-17T07:11:53;6.03;;;1.87;;
66739;SDS011;53653;52.188;8.602;2022-07-17T07:14:19;6.33;;;1.90;;
66739;SDS011;53653;52.188;8.602;2022-07-17T07:16:44;8.80;;;1.75;;
66739;SDS011;53653;52.188;8.602;2022-07-17T07:19:10;8.00;;;1.60;;
66739;SDS011;53653;52.188;8.602;2022-07-17T07:21:35;8.70;;;1.63;;
66739;SDS011;53653;52.188;8.602;2022-07-17T07:24:01;11.03;;;2.00;;
66739;SDS011;53653;52.188;8.602;2022-07-17T07:26:26;12.55;;;1.58;;
66739;SDS011;53653;52.188;8.602;2022-07-17T07:28:52;8.05;;;1.60;;
66739;SDS011;53653;52.188;8.602;2022-07-17T07:31:18;7.57;;;1.40;;
66739;SDS011;53653;52.188;8.602;2022-07-17T07:33:44;5.95;;;1.35;;
66739;SDS011;53653;52.188;8.602;2022-07-17T07:36:09;6.03;;;1.30;;
66739;SDS011;53653;52.188;8.602;2022-07-17T07:38:35;9.55;;;1.92;;
66739;SDS011;53653;52.188;8.602;2022-07-17T07:41:01;6.50;;;1.40;;
66739;SDS011;53653;52.188;8.602;2022-07-17T07:43:26;7.97;;;1.80;;
66739;SDS011;53653;52.188;8.602;2022-07-17T07:45:52;4.97;;;1.33;;
66739;SDS011;53653;52.188;8.602;2022-07-17T07:48:17;7.67;;;1.80;;
66739;SDS011;53653;52.188;8.602;2022-07-17T07:50:43;9.07;;;2.00;;
66739;SDS011;53653;52.188;8.602;2022-07-17T07:53:08;9.02;;;1.90;;
66739;SDS011;53653;52.188;8.602;2022-07-17T07:55:33;8.67;;;1.90;;
66739;SDS011;53653;52.188;8.602;2022-07-17T07:58:02;9.30;;;1.48;;
66739;SDS011;53653;52.188;8.602;2022-07-17T08:00:28;5.70;;;1.40;;
66739;SDS011;53653;52.188;8.602;2022-07-17T08:02:53;6.10;;;1.40;;
66739;SDS011;53653;52.188;8.602;2022-07-17T08:05:19;7.67;;;1.70;;
66739;SDS011;53653;52.188;8.602;2022-07-17T08:07:44;7.68;;;1.70;;
66739;SDS011;53653;52.188;8.602;2022-07-17T08:10:10;7.03;;;1.73;;
66739;SDS011;53653;52.188;8.602;2022-07-17T08:12:35;7.53;;;1.70;;
66739;SDS011;53653;52.188;8.602;2022-07-17T08:15:01;6.97;;;1.90;;
66739;SDS011;53653;52.188;8.602;2022-07-17T08:17:26;6.10;;;1.60;;
66739;SDS011;53653;52.188;8.602;2022-07-17T08:19:52;6.30;;;1.53;;
66739;SDS011;53653;52.188;8.602;2022-07-17T08:22:17;8.50;;;1.50;;
66739;SDS011;53653;52.188;8.602;2022-07-17T08:24:43;5.80;;;1.20;;
66739;SDS011;53653;52.188;8.602;2022-07-17T08:27:08;7.60;;;1.40;;
66739;SDS011;53653;52.188;8.602;2022-07-17T08:29:34;7.77;;;1.50;;
66739;SDS011;53653;52.188;8.602;2022-07-17T08:31:59;6.68;;;1.50;;
66739;SDS011;53653;52.188;8.602;2022-07-17T08:34:24;6.83;;;1.40;;
66739;SDS011;53653;52.188;8.602;2022-07-17T08:36:50;5.97;;;1.50;;
66739;SDS011;53653;52.188;8.602;2022-07-17T08:39:16;6.18;;;1.55;;
66739;SDS011;53653;52.188;8.602;2022-07-17T08:41:41;5.17;;;1.40;;
66739;SDS011;53653;52.188;8.602;2022-07-17T08:44:07;5.07;;;1.57;;
66739;SDS011;53653;52.188;8.602;2022-07-17T08:46:37;7.43;;;1.50;;
66739;SDS011;53653;52.188;8.602;2022-07-17T08:49:03;7.95;;;1.40;;
66739;SDS011;53653;52.188;8.602;2022-07-17T08:51:30;8.35;;;1.60;;
66739;SDS011;53653;52.188;8.602;2022-07-17T08:53:57;5.40;;;1.50;;
66739;SDS011;53653;52.188;8.602;2022-07-17T08:56:22;8.90;;;1.60;;
66739;SDS011;53653;52.188;8.602;2022-07-17T08:58:48;5.38;;;1.52;;
66739;SDS011;53653;52.188;8.602;2022-07-17T09:01:15;7.95;;;1.50;;
66739;SDS011;53653;52.188;8.602;2022-07-17T09:03:53;7.05;;;1.60;;
66739;SDS011;53653;52.188;8.602;2022-07-17T09:06:23;6.55;;;1.60;;
66739;SDS011;53653;52.188;8.602;2022-07-17T09:08:59;6.57;;;1.30;;
66739;SDS011;53653;52.188;8.602;2022-07-17T09:11:27;6.70;;;1.40;;
66739;SDS011;53653;52.188;8.602;2022-07-17T09:13:53;10.10;;;1.83;;
66739;SDS011;53653;52.188;8.602;2022-07-17T09:16:19;6.43;;;1.40;;
66739;SDS011;53653;52.188;8.602;2022-07-17T09:18:48;6.17;;;1.53;;
66739;SDS011;53653;52.188;8.602;2022-07-17T09:23:44;6.05;;;1.60;;
66739;SDS011;53653;52.188;8.602;2022-07-17T09:26:10;6.23;;;1.70;;
66739;SDS011;53653;52.188;8.602;2022-07-17T09:28:45;5.45;;;1.52;;
66739;SDS011;53653;52.188;8.602;2022-07-17T09:31:11;5.30;;;1.70;;
66739;SDS011;53653;52.188;8.602;2022-07-17T09:33:37;5.37;;;1.57;;
66739;SDS011;53653;52.188;8.602;2022-07-17T09:36:06;6.97;;;1.60;;
66739;SDS011;53653;52.188;8.602;2022-07-17T09:41:01;8.43;;;1.67;;
66739;SDS011;53653;52.188;8.602;2022-07-17T09:43:48;8.10;;;1.63;;
66739;SDS011;53653;52.188;8.602;2022-07-17T09:48:55;8.83;;;1.70;;
66739;SDS011;53653;52.188;8.602;2022-07-17T09:51:26;6.28;;;1.60;;
66739;SDS011;53653;52.188;8.602;2022-07-17T09:53:59;5.57;;;1.70;;
66739;SDS011;53653;52.188;8.602;2022-07-17T09:56:27;6.95;;;1.85;;
66739;SDS011;53653;52.188;8.602;2022-07-17T09:58:54;5.70;;;1.50;;
66739;SDS011;53653;52.188;8.602;2022-07-17T10:01:25;5.80;;;1.60;;
66739;SDS011;53653;52.188;8.602;2022-07-17T10:03:50;9.15;;;1.80;;
66739;SDS011;53653;52.188;8.602;2022-07-17T10:06:18;6.70;;;1.65;;
66739;SDS011;53653;52.188;8.602;2022-07-17T10:08:45;7.47;;;1.95;;
66739;SDS011;53653;52.188;8.602;2022-07-17T10:11:11;5.40;;;1.60;;
66739;SDS011;53653;52.188;8.602;2022-07-17T10:13:40;8.75;;;1.58;;
66739;SDS011;53653;52.188;8.602;2022-07-17T10:16:08;9.18;;;1.90;;
66739;SDS011;53653;52.188;8.602;2022-07-17T10:18:35;8.30;;;1.90;;
66739;SDS011;53653;52.188;8.602;2022-07-17T10:21:15;5.87;;;1.40;;
66739;SDS011;53653;52.188;8.602;2022-07-17T10:26:16;10.38;;;2.20;;
66739;SDS011;53653;52.188;8.602;2022-07-17T10:28:46;7.80;;;1.50;;
66739;SDS011;53653;52.188;8.602;2022-07-17T10:31:25;5.75;;;1.52;;
66739;SDS011;53653;52.188;8.602;2022-07-17T10:34:10;6.00;;;1.67;;
66739;SDS011;53653;52.188;8.602;2022-07-17T10:36:39;7.03;;;1.52;;
66739;SDS011;53653;52.188;8.602;2022-07-17T10:39:10;8.32;;;1.70;;
66739;SDS011;53653;52.188;8.602;2022-07-17T10:41:43;5.63;;;1.27;;
66739;SDS011;53653;52.188;8.602;2022-07-17T10:44:25;6.15;;;1.40;;
66739;SDS011;53653;52.188;8.602;2022-07-17T10:46:54;6.18;;;1.48;;
66739;SDS011;53653;52.188;8.602;2022-07-17T10:49:21;6.45;;;1.95;;
66739;SDS011;53653;52.188;8.602;2022-07-17T10:51:48;7.18;;;1.50;;
66739;SDS011;53653;52.188;8.602;2022-07-17T10:54:15;7.07;;;1.50;;
66739;SDS011;53653;52.188;8.602;2022-07-17T10:56:41;5.75;;;1.30;;
66739;SDS011;53653;52.188;8.602;2022-07-17T10:59:07;6.90;;;1.80;;
66739;SDS011;53653;52.188;8.602;2022-07-17T11:01:32;5.72;;;1.40;;
66739;SDS011;53653;52.188;8.602;2022-07-17T11:03:59;8.23;;;1.50;;
66739;SDS011;53653;52.188;8.602;2022-07-17T11:06:34;5.30;;;1.42;;
66739;SDS011;53653;52.188;8.602;2022-07-17T11:09:19;5.32;;;1.50;;
66739;SDS011;53653;52.188;8.602;2022-07-17T11:11:49;9.10;;;1.63;;
66739;SDS011;53653;52.188;8.602;2022-07-17T11:16:44;6.53;;;1.40;;
66739;SDS011;53653;52.188;8.602;2022-07-17T11:19:35;6.55;;;1.60;;
66739;SDS011;53653;52.188;8.602;2022-07-17T11:22:04;6.72;;;1.70;;
66739;SDS011;53653;52.188;8.602;2022-07-17T11:27:01;5.82;;;1.50;;
66739;SDS011;53653;52.188;8.602;2022-07-17T11:29:26;6.07;;;1.43;;
66739;SDS011;53653;52.188;8.602;2022-07-17T11:31:55;7.07;;;1.37;;
66739;SDS011;53653;52.188;8.602;2022-07-17T11:34:24;7.22;;;1.42;;
66739;SDS011;53653;52.188;8.602;2022-07-17T11:36:50;4.93;;;1.37;;
66739;SDS011;53653;52.188;8.602;2022-07-17T11:39:26;7.85;;;1.60;;
66739;SDS011;53653;52.188;8.602;2022-07-17T11:42:07;4.95;;;1.20;;
66739;SDS011;53653;52.188;8.602;2022-07-17T11:44:34;5.28;;;1.23;;
66739;SDS011;53653;52.188;8.602;2022-07-17T11:47:00;7.73;;;1.50;;
66739;SDS011;53653;52.188;8.602;2022-07-17T11:49:27;6.13;;;1.50;;
66739;SDS011;53653;52.188;8.602;2022-07-17T11:51:54;6.18;;;1.50;;
66739;SDS011;53653;52.188;8.602;2022-07-17T11:54:21;5.90;;;1.48;;
66739;SDS011;53653;52.188;8.602;2022-07-17T11:56:53;7.47;;;1.90;;
66739;SDS011;53653;52.188;8.602;2022-07-17T11:59:25;6.03;;;1.80;;
66739;SDS011;53653;52.188;8.602;2022-07-17T12:01:53;5.05;;;1.40;;
66739;SDS011;53653;52.188;8.602;2022-07-17T12:04:19;7.50;;;1.50;;
66739;SDS011;53653;52.188;8.602;2022-07-17T12:06:46;5.17;;;1.43;;
66739;SDS011;53653;52.188;8.602;2022-07-17T12:09:26;6.65;;;1.20;;
66739;SDS011;53653;52.188;8.602;2022-07-17T12:11:53;5.53;;;1.48;;
66739;SDS011;53653;52.188;8.602;2022-07-17T12:14:19;6.72;;;1.33;;
66739;SDS011;53653;52.188;8.602;2022-07-17T12:16:46;5.43;;;1.42;;
66739;SDS011;53653;52.188;8.602;2022-07-17T12:19:16;4.50;;;1.30;;
66739;SDS011;53653;52.188;8.602;2022-07-17T12:21:54;5.57;;;1.30;;
66739;SDS011;53653;52.188;8.602;2022-07-17T12:24:24;5.22;;;1.30;;
66739;SDS011;53653;52.188;8.602;2022-07-17T12:26:51;5.10;;;1.38;;
66739;SDS011;53653;52.188;8.602;2022-07-17T12:29:19;4.43;;;1.13;;
66739;SDS011;53653;52.188;8.602;2022-07-17T12:31:44;5.67;;;1.20;;
66739;SDS011;53653;52.188;8.602;2022-07-17T12:34:10;6.47;;;1.38;;
66739;SDS011;53653;52.188;8.602;2022-07-17T12:36:35;5.17;;;1.40;;
66739;SDS011;53653;52.188;8.602;2022-07-17T12:39:01;5.53;;;1.40;;
66739;SDS011;53653;52.188;8.602;2022-07-17T12:41:27;4.85;;;1.20;;
66739;SDS011;53653;52.188;8.602;2022-07-17T12:43:52;4.57;;;1.40;;
66739;SDS011;53653;52.188;8.602;2022-07-17T12:46:18;6.10;;;1.08;;
66739;SDS011;53653;52.188;8.602;2022-07-17T12:48:44;6.17;;;1.40;;
66739;SDS011;53653;52.188;8.602;2022-07-17T12:51:10;5.47;;;1.30;;
66739;SDS011;53653;52.188;8.602;2022-07-17T12:53:40;5.40;;;1.17;;
66739;SDS011;53653;52.188;8.602;2022-07-17T12:56:07;5.63;;;1.33;;
66739;SDS011;53653;52.188;8.602;2022-07-17T12:58:33;4.70;;;1.33;;
66739;SDS011;53653;52.188;8.602;2022-07-17T13:00:58;6.03;;;1.37;;
66739;SDS011;53653;52.188;8.602;2022-07-17T13:03:24;5.25;;;1.33;;
66739;SDS011;53653;52.188;8.602;2022-07-17T13:05:49;7.30;;;1.50;;
66739;SDS011;53653;52.188;8.602;2022-07-17T13:08:15;4.47;;;1.20;;
66739;SDS011;53653;52.188;8.602;2022-07-17T13:10:40;5.77;;;1.43;;
66739;SDS011;53653;52.188;8.602;2022-07-17T13:13:05;6.13;;;1.47;;
66739;SDS011;53653;52.188;8.602;2022-07-17T13:15:31;6.37;;;1.30;;
66739;SDS011;53653;52.188;8.602;2022-07-17T13:17:56;5.28;;;1.30;;
66739;SDS011;53653;52.188;8.602;2022-07-17T13:20:22;5.57;;;1.40;;
66739;SDS011;53653;52.188;8.602;2022-07-17T13:22:47;5.97;;;1.40;;
66739;SDS011;53653;52.188;8.602;2022-07-17T13:25:13;5.63;;;1.30;;
66739;SDS011;53653;52.188;8.602;2022-07-17T13:27:38;5.57;;;1.70;;
66739;SDS011;53653;52.188;8.602;2022-07-17T13:30:04;4.20;;;1.20;;
66739;SDS011;53653;52.188;8.602;2022-07-17T13:32:30;4.72;;;1.30;;
66739;SDS011;53653;52.188;8.602;2022-07-17T13:34:55;6.93;;;1.30;;
66739;SDS011;53653;52.188;8.602;2022-07-17T13:37:20;6.07;;;1.40;;
66739;SDS011;53653;52.188;8.602;2022-07-17T13:39:46;4.97;;;1.17;;
66739;SDS011;53653;52.188;8.602;2022-07-17T13:42:11;4.47;;;1.05;;
66739;SDS011;53653;52.188;8.602;2022-07-17T13:44:37;5.73;;;1.13;;
66739;SDS011;53653;52.188;8.602;2022-07-17T13:47:02;5.47;;;1.30;;
66739;SDS011;53653;52.188;8.602;2022-07-17T13:49:27;5.27;;;1.20;;
66739;SDS011;53653;52.188;8.602;2022-07-17T13:51:53;3.72;;;1.10;;
66739;SDS011;53653;52.188;8.602;2022-07-17T13:54:18;4.23;;;1.20;;
66739;SDS011;53653;52.188;8.602;2022-07-17T13:56:44;6.33;;;1.20;;
66739;SDS011;53653;52.188;8.602;2022-07-17T13:59:09;3.93;;;1.10;;
66739;SDS011;53653;52.188;8.602;2022-07-17T14:01:34;5.57;;;1.40;;
66739;SDS011;53653;52.188;8.602;2022-07-17T14:04:01;6.13;;;1.10;;
66739;SDS011;53653;52.188;8.602;2022-07-17T14:06:26;3.75;;;1.05;;
66739;SDS011;53653;52.188;8.602;2022-07-17T14:08:52;5.03;;;0.93;;
66739;SDS011;53653;52.188;8.602;2022-07-17T14:11:17;4.63;;;0.87;;
66739;SDS011;53653;52.188;8.602;2022-07-17T14:13:43;5.70;;;1.33;;
66739;SDS011;53653;52.188;8.602;2022-07-17T14:16:08;4.97;;;1.27;;
66739;SDS011;53653;52.188;8.602;2022-07-17T14:18:34;4.47;;;1.20;;
66739;SDS011;53653;52.188;8.602;2022-07-17T14:20:59;4.50;;;1.13;;
66739;SDS011;53653;52.188;8.602;2022-07-17T14:23:25;4.63;;;1.10;;
66739;SDS011;53653;52.188;8.602;2022-07-17T14:25:50;4.60;;;1.37;;
66739;SDS011;53653;52.188;8.602;2022-07-17T14:28:16;4.80;;;1.20;;
66739;SDS011;53653;52.188;8.602;2022-07-17T14:30:41;5.57;;;1.10;;
66739;SDS011;53653;52.188;8.602;2022-07-17T14:33:07;5.77;;;1.40;;
66739;SDS011;53653;52.188;8.602;2022-07-17T14:35:32;6.93;;;1.30;;
66739;SDS011;53653;52.188;8.602;2022-07-17T14:37:59;5.70;;;1.30;;
66739;SDS011;53653;52.188;8.602;2022-07-17T14:40:25;3.78;;;1.08;;
66739;SDS011;53653;52.188;8.602;2022-07-17T14:42:51;5.70;;;1.08;;
66739;SDS011;53653;52.188;8.602;2022-07-17T14:45:17;7.03;;;1.40;;
66739;SDS011;53653;52.188;8.602;2022-07-17T14:47:42;5.32;;;1.30;;
66739;SDS011;53653;52.188;8.602;2022-07-17T14:50:08;8.30;;;1.50;;
66739;SDS011;53653;52.188;8.602;2022-07-17T14:52:34;4.50;;;1.30;;
66739;SDS011;53653;52.188;8.602;2022-07-17T14:55:00;4.53;;;1.40;;
66739;SDS011;53653;52.188;8.602;2022-07-17T14:57:26;4.10;;;1.13;;